createdAt,value
2023-11-07T00:01:33.704Z,9.05
2023-11-07T00:04:10.089Z,9.12
2023-11-07T00:06:39.473Z,9.15
2023-11-07T00:09:08.937Z,9.18
2023-11-07T00:11:37.607Z,9.17
2023-11-07T00:14:06.559Z,9.14
2023-11-07T00:16:35.751Z,9.09
2023-11-07T00:19:06.664Z,9.04
2023-11-07T00:21:35.125Z,9.00
2023-11-07T00:24:03.657Z,8.94
2023-11-07T00:26:32.363Z,8.89
2023-11-07T00:29:00.938Z,8.83
2023-11-07T00:31:29.518Z,8.77
2023-11-07T00:33:58.045Z,8.71
2023-11-07T00:36:26.379Z,8.65
2023-11-07T00:38:54.618Z,8.59
2023-11-07T00:41:23.043Z,8.55
2023-11-07T00:43:51.413Z,8.55
2023-11-07T00:46:20.203Z,8.55
2023-11-07T00:48:48.705Z,8.53
2023-11-07T00:51:17.339Z,8.48
2023-11-07T00:53:45.612Z,8.43
2023-11-07T00:56:13.980Z,8.42
2023-11-07T00:58:42.307Z,8.39
2023-11-07T01:01:10.778Z,8.39
2023-11-07T01:03:39.348Z,8.41
2023-11-07T01:06:08.015Z,8.43
2023-11-07T01:08:36.404Z,8.44
2023-11-07T01:11:04.872Z,8.45
2023-11-07T01:13:33.408Z,8.46
2023-11-07T01:16:01.797Z,8.43
2023-11-07T01:18:30.244Z,8.38
2023-11-07T01:20:58.961Z,8.31
2023-11-07T01:23:27.236Z,8.19
2023-11-07T01:25:55.716Z,8.06
2023-11-07T01:28:24.376Z,7.98
2023-11-07T01:30:52.691Z,7.95
2023-11-07T01:33:21.399Z,7.89
2023-11-07T01:35:50.230Z,7.86
2023-11-07T01:38:18.582Z,7.84
2023-11-07T01:40:46.919Z,7.83
2023-11-07T01:43:16.159Z,7.81
2023-11-07T01:45:44.797Z,7.77
2023-11-07T01:48:14.193Z,7.76
2023-11-07T01:50:43.450Z,7.75
2023-11-07T01:53:11.779Z,7.74
2023-11-07T01:55:42.114Z,7.72
2023-11-07T01:58:11.101Z,7.72
2023-11-07T02:00:41.490Z,7.71
2023-11-07T02:03:09.979Z,7.70
2023-11-07T02:05:38.861Z,7.67
2023-11-07T02:08:07.328Z,7.61
2023-11-07T02:10:35.559Z,7.56
2023-11-07T02:13:04.243Z,7.51
2023-11-07T02:15:33.143Z,7.47
2023-11-07T02:18:02.132Z,7.45
2023-11-07T02:20:32.210Z,7.44
2023-11-07T02:23:04.170Z,7.44
2023-11-07T02:25:32.632Z,7.45
2023-11-07T02:28:02.605Z,7.45
2023-11-07T02:30:30.843Z,7.44
2023-11-07T02:33:05.509Z,7.41
2023-11-07T02:35:34.157Z,7.39
2023-11-07T02:38:02.475Z,7.36
2023-11-07T02:40:31.165Z,7.35
2023-11-07T02:43:01.385Z,7.34
2023-11-07T02:45:30.179Z,7.32
2023-11-07T02:47:59.220Z,7.31
2023-11-07T02:50:27.592Z,7.33
2023-11-07T02:52:55.928Z,7.32
2023-11-07T02:55:24.308Z,7.31
2023-11-07T02:57:52.691Z,7.33
2023-11-07T03:00:21.380Z,7.33
2023-11-07T03:02:50.234Z,7.32
2023-11-07T03:05:19.282Z,7.34
2023-11-07T03:07:47.639Z,7.37
2023-11-07T03:10:16.275Z,7.40
2023-11-07T03:12:44.809Z,7.43
2023-11-07T03:15:14.423Z,7.47
2023-11-07T03:17:43.198Z,7.50
2023-11-07T03:20:12.141Z,7.54
2023-11-07T03:22:40.379Z,7.55
2023-11-07T03:25:08.960Z,7.59
2023-11-07T03:27:38.497Z,7.62
2023-11-07T03:30:07.453Z,7.55
2023-11-07T03:32:36.226Z,7.51
2023-11-07T03:35:06.002Z,7.48
2023-11-07T03:37:34.245Z,7.47
2023-11-07T03:40:04.557Z,7.44
2023-11-07T03:42:33.465Z,7.39
2023-11-07T03:45:01.970Z,7.38
2023-11-07T03:47:31.379Z,7.41
2023-11-07T03:49:59.676Z,7.46
2023-11-07T03:52:27.940Z,7.51
2023-11-07T03:54:56.376Z,7.58
2023-11-07T03:57:25.229Z,7.63
2023-11-07T03:59:53.468Z,7.68
2023-11-07T04:02:23.100Z,7.72
2023-11-07T04:04:51.334Z,7.76
2023-11-07T04:07:19.805Z,7.81
2023-11-07T04:09:48.256Z,7.87
2023-11-07T04:12:17.182Z,7.91
2023-11-07T04:14:46.838Z,7.91
2023-11-07T04:17:17.000Z,7.90
2023-11-07T04:19:45.396Z,7.86
2023-11-07T04:22:14.340Z,7.87
2023-11-07T04:24:43.601Z,7.86
2023-11-07T04:27:11.989Z,7.81
2023-11-07T04:29:40.406Z,7.80
2023-11-07T04:32:08.633Z,7.75
2023-11-07T04:34:37.520Z,7.74
2023-11-07T04:37:05.789Z,7.71
2023-11-07T04:39:34.169Z,7.69
2023-11-07T04:42:03.092Z,7.69
2023-11-07T04:44:33.184Z,7.68
2023-11-07T04:47:03.960Z,7.69
2023-11-07T04:49:35.684Z,7.71
2023-11-07T04:52:04.720Z,7.71
2023-11-07T04:54:32.875Z,7.71
2023-11-07T04:57:01.609Z,7.63
2023-11-07T04:59:30.631Z,7.52
2023-11-07T05:01:58.879Z,7.49
2023-11-07T05:04:27.687Z,7.46
2023-11-07T05:06:56.215Z,7.44
2023-11-07T05:09:26.818Z,7.41
2023-11-07T05:11:56.484Z,7.41
2023-11-07T05:14:24.853Z,7.42
2023-11-07T05:16:53.226Z,7.45
2023-11-07T05:19:21.592Z,7.47
2023-11-07T05:21:49.796Z,7.50
2023-11-07T05:24:18.372Z,7.50
2023-11-07T05:26:46.891Z,7.53
2023-11-07T05:29:16.222Z,7.58
2023-11-07T05:31:44.673Z,7.62
2023-11-07T05:34:13.541Z,7.66
2023-11-07T05:36:42.524Z,7.70
2023-11-07T05:39:10.764Z,7.73
2023-11-07T05:41:39.014Z,7.77
2023-11-07T05:44:08.293Z,7.79
2023-11-07T05:46:36.573Z,7.84
2023-11-07T05:49:05.098Z,7.89
2023-11-07T05:51:33.578Z,7.94
2023-11-07T05:54:02.083Z,8.00
2023-11-07T05:56:30.332Z,8.05
2023-11-07T05:58:58.466Z,8.12
2023-11-07T06:01:26.725Z,8.23
2023-11-07T06:03:55.872Z,8.37
2023-11-07T06:06:25.865Z,8.54
2023-11-07T06:08:55.098Z,8.74
2023-11-07T06:11:23.783Z,8.96
2023-11-07T06:13:51.989Z,9.22
2023-11-07T06:16:20.277Z,9.52
2023-11-07T06:18:49.745Z,9.88
2023-11-07T06:21:17.921Z,10.24
2023-11-07T06:23:46.254Z,10.65
2023-11-07T06:26:14.524Z,11.08
2023-11-07T06:28:42.797Z,11.50
2023-11-07T06:31:10.900Z,11.89
2023-11-07T06:33:39.402Z,12.30
2023-11-07T06:36:08.211Z,12.67
2023-11-07T06:38:36.578Z,13.05
2023-11-07T06:41:05.348Z,13.42
2023-11-07T06:43:33.630Z,13.79
2023-11-07T06:46:01.903Z,14.16
2023-11-07T06:48:30.600Z,14.43
2023-11-07T06:50:59.929Z,14.63
2023-11-07T06:53:28.395Z,14.89
2023-11-07T06:55:56.863Z,15.20
2023-11-07T06:58:25.391Z,15.52
2023-11-07T07:00:55.971Z,15.82
2023-11-07T07:03:28.308Z,16.04
2023-11-07T07:05:56.930Z,16.29
2023-11-07T07:08:25.320Z,16.38
2023-11-07T07:10:53.484Z,16.52
2023-11-07T07:13:23.447Z,16.76
2023-11-07T07:15:52.088Z,16.99
2023-11-07T07:18:23.840Z,17.21
2023-11-07T07:20:54.928Z,17.57
2023-11-07T07:23:26.318Z,17.82
2023-11-07T07:25:54.637Z,18.17
2023-11-07T07:28:22.696Z,18.59
2023-11-07T07:30:50.814Z,18.90
2023-11-07T07:33:20.771Z,19.18
2023-11-07T07:35:49.298Z,19.46
2023-11-07T07:38:17.679Z,19.75
2023-11-07T07:40:45.812Z,19.87
2023-11-07T07:43:13.928Z,19.75
2023-11-07T07:45:45.658Z,19.78
2023-11-07T07:48:14.332Z,19.98
2023-11-07T07:50:48.358Z,20.12
2023-11-07T07:53:16.857Z,20.41
2023-11-07T07:55:45.961Z,20.70
2023-11-07T07:58:20.684Z,20.88
2023-11-07T08:00:51.136Z,20.78
2023-11-07T08:03:20.174Z,20.64
2023-11-07T08:05:53.174Z,20.29
2023-11-07T08:08:22.124Z,19.72
2023-11-07T08:10:50.574Z,19.55
2023-11-07T08:13:20.180Z,19.43
2023-11-07T08:15:51.852Z,19.03
2023-11-07T08:18:20.761Z,18.60
2023-11-07T08:20:49.284Z,18.28
2023-11-07T08:23:17.782Z,17.84
2023-11-07T08:25:46.167Z,17.78
2023-11-07T08:28:14.639Z,17.99
2023-11-07T08:30:45.722Z,18.19
2023-11-07T08:33:15.023Z,18.46
2023-11-07T08:35:45.018Z,18.54
2023-11-07T08:38:13.380Z,18.61
2023-11-07T08:40:41.722Z,18.82
2023-11-07T08:43:10.662Z,19.01
2023-11-07T08:45:39.054Z,19.13
2023-11-07T08:48:08.384Z,19.04
2023-11-07T08:50:38.633Z,18.96
2023-11-07T08:53:07.296Z,19.04
2023-11-07T08:55:35.834Z,19.11
2023-11-07T08:58:04.810Z,19.26
2023-11-07T09:00:35.797Z,19.48
2023-11-07T09:03:04.888Z,19.73
2023-11-07T09:05:33.916Z,19.91
2023-11-07T09:08:06.064Z,20.20
2023-11-07T09:10:35.117Z,20.63
2023-11-07T09:13:05.117Z,21.17
2023-11-07T09:15:33.480Z,21.62
2023-11-07T09:18:02.505Z,21.71
2023-11-07T09:20:31.315Z,21.74
2023-11-07T09:22:59.750Z,21.85
2023-11-07T09:25:28.082Z,22.20
2023-11-07T09:27:56.660Z,22.51
2023-11-07T09:30:25.073Z,22.61
2023-11-07T09:32:53.830Z,22.65
2023-11-07T09:35:22.491Z,22.45
2023-11-07T09:37:51.573Z,22.18
2023-11-07T09:40:24.336Z,22.10
2023-11-07T09:42:55.438Z,22.13
2023-11-07T09:45:23.689Z,22.16
2023-11-07T09:47:52.383Z,22.12
2023-11-07T09:50:21.761Z,22.31
2023-11-07T09:52:51.157Z,22.49
2023-11-07T09:55:19.391Z,22.59
2023-11-07T09:58:15.562Z,22.79
2023-11-07T10:00:46.697Z,22.95
2023-11-07T10:03:15.929Z,22.99
2023-11-07T10:05:47.533Z,22.93
2023-11-07T10:08:17.664Z,23.08
2023-11-07T10:11:05.865Z,23.24
2023-11-07T10:13:34.162Z,23.53
2023-11-07T10:16:18.137Z,23.75
2023-11-07T10:18:49.860Z,24.06
2023-11-07T10:21:31.022Z,24.19
2023-11-07T10:23:59.994Z,24.58
2023-11-07T10:26:28.747Z,24.87
2023-11-07T10:29:19.021Z,25.26
2023-11-07T10:31:59.159Z,25.76
2023-11-07T10:34:27.659Z,26.12
2023-11-07T10:36:56.905Z,26.36
2023-11-07T10:39:27.503Z,26.60
2023-11-07T10:41:59.844Z,26.68
2023-11-07T10:44:31.054Z,26.68
2023-11-07T10:46:59.908Z,26.68
2023-11-07T10:49:29.853Z,26.79
2023-11-07T10:52:02.004Z,26.89
2023-11-07T10:54:32.216Z,27.06
2023-11-07T10:57:06.694Z,27.26
2023-11-07T10:59:36.643Z,27.55
2023-11-07T11:02:09.456Z,27.88
2023-11-07T11:04:39.465Z,28.15
2023-11-07T11:07:09.106Z,28.53
2023-11-07T11:09:40.283Z,29.11
2023-11-07T11:12:08.950Z,29.86
2023-11-07T11:14:37.182Z,30.46
2023-11-07T11:17:09.154Z,31.11
2023-11-07T11:20:06.978Z,31.63
2023-11-07T11:22:56.608Z,31.97
2023-11-07T11:25:36.559Z,32.34
2023-11-07T11:28:06.886Z,33.03
2023-11-07T11:30:39.181Z,33.12
2023-11-07T11:33:13.200Z,33.11
2023-11-07T11:35:42.857Z,32.81
2023-11-07T11:38:17.950Z,32.34
2023-11-07T11:40:47.429Z,32.45
2023-11-07T11:43:15.563Z,32.97
2023-11-07T11:45:47.313Z,33.58
2023-11-07T11:48:16.872Z,34.07
2023-11-07T11:50:46.890Z,34.35
2023-11-07T11:53:41.274Z,34.64
2023-11-07T11:56:12.286Z,35.04
2023-11-07T11:58:40.805Z,35.26
2023-11-07T12:01:09.462Z,35.60
2023-11-07T12:03:41.524Z,35.95
2023-11-07T12:06:10.354Z,36.39
2023-11-07T12:08:40.566Z,36.83
2023-11-07T12:11:09.358Z,37.26
2023-11-07T12:13:37.956Z,37.47
2023-11-07T12:16:17.329Z,37.60
2023-11-07T12:18:49.462Z,37.88
2023-11-07T12:21:22.045Z,38.03
2023-11-07T12:23:51.958Z,37.91
2023-11-07T12:26:22.068Z,37.53
2023-11-07T12:28:52.938Z,37.10
2023-11-07T12:31:25.709Z,36.56
2023-11-07T12:33:55.199Z,36.30
2023-11-07T12:36:23.583Z,36.23
2023-11-07T12:38:52.136Z,35.91
2023-11-07T12:41:20.995Z,35.47
2023-11-07T12:43:49.848Z,34.88
2023-11-07T12:46:18.780Z,34.03
2023-11-07T12:48:48.791Z,33.46
2023-11-07T12:51:23.436Z,33.24
2023-11-07T12:53:52.831Z,33.18
2023-11-07T12:56:22.349Z,33.09
2023-11-07T12:58:50.878Z,33.20
2023-11-07T13:01:25.046Z,33.34
2023-11-07T13:03:55.254Z,33.80
2023-11-07T13:06:23.953Z,34.35
2023-11-07T13:08:52.419Z,34.88
2023-11-07T13:11:22.130Z,35.28
2023-11-07T13:13:51.380Z,35.46
2023-11-07T13:16:20.875Z,35.66
2023-11-07T13:18:50.543Z,35.59
2023-11-07T13:21:19.361Z,35.52
2023-11-07T13:23:48.773Z,35.51
2023-11-07T13:26:17.514Z,35.63
2023-11-07T13:28:45.804Z,35.65
2023-11-07T13:31:15.196Z,35.87
2023-11-07T13:33:47.515Z,36.00
2023-11-07T13:36:17.050Z,36.11
2023-11-07T13:38:49.590Z,35.82
2023-11-07T13:41:18.208Z,35.58
2023-11-07T13:43:46.947Z,35.39
2023-11-07T13:46:19.847Z,35.11
2023-11-07T13:48:53.196Z,35.11
2023-11-07T13:51:22.546Z,35.26
2023-11-07T13:53:52.497Z,35.31
2023-11-07T13:56:22.258Z,35.24
2023-11-07T13:58:50.715Z,35.08
2023-11-07T14:01:19.092Z,34.85
2023-11-07T14:03:47.956Z,34.70
2023-11-07T14:06:19.428Z,34.48
2023-11-07T14:08:48.329Z,33.94
2023-11-07T14:11:18.070Z,33.13
2023-11-07T14:13:49.008Z,32.31
2023-11-07T14:16:18.396Z,31.51
2023-11-07T14:18:50.539Z,30.77
2023-11-07T14:21:19.763Z,30.32
2023-11-07T14:23:48.377Z,29.96
2023-11-07T14:26:17.904Z,29.47
2023-11-07T14:28:58.572Z,28.93
2023-11-07T14:31:31.159Z,28.43
2023-11-07T14:34:00.516Z,27.93
2023-11-07T14:36:29.749Z,27.37
2023-11-07T14:38:58.202Z,26.73
2023-11-07T14:41:28.566Z,26.12
2023-11-07T14:43:57.753Z,25.48
2023-11-07T14:46:26.032Z,24.87
2023-11-07T14:48:57.497Z,24.32
2023-11-07T14:51:26.731Z,23.76
2023-11-07T14:53:55.375Z,23.22
2023-11-07T14:56:25.621Z,22.70
2023-11-07T14:58:54.716Z,22.20
2023-11-07T15:01:23.977Z,21.76
2023-11-07T15:03:52.643Z,21.37
2023-11-07T15:06:21.168Z,21.02
2023-11-07T15:08:49.513Z,20.69
2023-11-07T15:11:18.235Z,20.38
2023-11-07T15:13:46.765Z,20.11
2023-11-07T15:16:15.769Z,19.80
2023-11-07T15:18:44.129Z,19.53
2023-11-07T15:21:12.973Z,19.28
2023-11-07T15:23:42.063Z,19.04
2023-11-07T15:26:10.413Z,18.84
2023-11-07T15:28:38.683Z,18.67
2023-11-07T15:31:07.125Z,18.52
2023-11-07T15:33:35.995Z,18.39
2023-11-07T15:36:04.724Z,18.24
2023-11-07T15:38:33.543Z,18.11
2023-11-07T15:41:02.286Z,17.98
2023-11-07T15:43:30.607Z,17.83
2023-11-07T15:46:00.926Z,17.68
2023-11-07T15:48:29.519Z,17.54
2023-11-07T15:50:57.921Z,17.39
2023-11-07T15:53:26.127Z,17.24
2023-11-07T15:55:54.555Z,17.09
2023-11-07T15:58:22.964Z,16.95
2023-11-07T16:00:51.724Z,16.81
2023-11-07T16:03:20.351Z,16.67
2023-11-07T16:05:48.871Z,16.53
2023-11-07T16:08:17.530Z,16.38
2023-11-07T16:10:46.497Z,16.23
2023-11-07T16:13:15.742Z,16.10
2023-11-07T16:15:44.265Z,15.98
2023-11-07T16:18:12.824Z,15.87
2023-11-07T16:20:44.119Z,15.78
2023-11-07T16:23:12.688Z,15.68
2023-11-07T16:25:41.211Z,15.61
2023-11-07T16:28:10.150Z,15.56
2023-11-07T16:30:40.604Z,15.56
2023-11-07T16:33:11.211Z,15.56
2023-11-07T16:35:39.641Z,15.56
2023-11-07T16:38:07.970Z,15.57
2023-11-07T16:40:36.250Z,15.58
2023-11-07T16:43:06.576Z,15.59
2023-11-07T16:45:34.943Z,15.62
2023-11-07T16:48:05.501Z,15.63
2023-11-07T16:50:34.329Z,15.63
2023-11-07T16:53:02.767Z,15.63
2023-11-07T16:55:32.099Z,15.64
2023-11-07T16:58:01.693Z,15.64
2023-11-07T17:00:31.713Z,15.61
2023-11-07T17:03:00.238Z,15.60
2023-11-07T17:05:29.014Z,15.58
2023-11-07T17:07:57.541Z,15.56
2023-11-07T17:10:26.329Z,15.53
2023-11-07T17:12:54.606Z,15.50
2023-11-07T17:15:23.125Z,15.47
2023-11-07T17:17:52.476Z,15.44
2023-11-07T17:20:21.498Z,15.40
2023-11-07T17:22:49.971Z,15.37
2023-11-07T17:25:19.477Z,15.34
2023-11-07T17:27:51.350Z,15.30
2023-11-07T17:30:21.658Z,15.26
2023-11-07T17:32:50.340Z,15.21
2023-11-07T17:35:18.939Z,15.15
2023-11-07T17:37:48.815Z,15.08
2023-11-07T17:40:17.409Z,15.02
2023-11-07T17:42:45.710Z,14.97
2023-11-07T17:45:14.891Z,14.92
2023-11-07T17:47:43.438Z,14.88
2023-11-07T17:50:11.991Z,14.84
2023-11-07T17:52:41.597Z,14.78
2023-11-07T17:55:15.374Z,14.72
2023-11-07T17:57:45.758Z,14.65
2023-11-07T18:00:16.512Z,14.60
2023-11-07T18:02:45.202Z,14.54
2023-11-07T18:05:14.697Z,14.51
2023-11-07T18:07:43.293Z,14.49
2023-11-07T18:10:11.775Z,14.45
2023-11-07T18:12:40.484Z,14.41
2023-11-07T18:15:09.713Z,14.36
2023-11-07T18:17:38.354Z,14.27
2023-11-07T18:20:08.523Z,14.23
2023-11-07T18:22:37.818Z,14.20
2023-11-07T18:25:07.530Z,14.18
2023-11-07T18:27:37.799Z,14.18
2023-11-07T18:30:12.593Z,14.14
2023-11-07T18:32:43.390Z,14.12
2023-11-07T18:35:12.173Z,14.05
2023-11-07T18:37:40.607Z,13.97
2023-11-07T18:40:09.673Z,13.92
2023-11-07T18:42:38.089Z,13.85
2023-11-07T18:45:09.797Z,13.80
2023-11-07T18:47:38.420Z,13.76
2023-11-07T18:50:08.943Z,13.73
2023-11-07T18:52:39.993Z,13.69
2023-11-07T18:55:08.924Z,13.66
2023-11-07T18:57:37.505Z,13.60
2023-11-07T19:00:09.831Z,13.58
2023-11-07T19:02:38.190Z,13.55
2023-11-07T19:05:09.222Z,13.50
2023-11-07T19:07:40.157Z,13.42
2023-11-07T19:10:08.952Z,13.32
2023-11-07T19:12:38.231Z,13.23
2023-11-07T19:15:07.875Z,13.14
2023-11-07T19:17:36.791Z,13.08
2023-11-07T19:20:05.822Z,13.00
2023-11-07T19:22:34.574Z,12.90
2023-11-07T19:25:04.178Z,12.80
2023-11-07T19:27:33.125Z,12.72
2023-11-07T19:30:01.609Z,12.63
2023-11-07T19:32:30.053Z,12.53
2023-11-07T19:34:59.061Z,12.44
2023-11-07T19:37:29.664Z,12.35
2023-11-07T19:39:58.562Z,12.26
2023-11-07T19:42:28.255Z,12.16
2023-11-07T19:44:56.852Z,12.05
2023-11-07T19:47:25.257Z,11.95
2023-11-07T19:49:53.507Z,11.85
2023-11-07T19:52:22.297Z,11.77
2023-11-07T19:54:51.912Z,11.69
2023-11-07T19:57:23.091Z,11.63
2023-11-07T19:59:51.447Z,11.59
2023-11-07T20:02:23.058Z,11.57
2023-11-07T20:04:54.520Z,11.54
2023-11-07T20:07:23.127Z,11.49
2023-11-07T20:09:51.419Z,11.41
2023-11-07T20:12:19.742Z,11.31
2023-11-07T20:14:48.169Z,11.21
2023-11-07T20:17:16.474Z,11.13
2023-11-07T20:19:45.033Z,11.05
2023-11-07T20:22:13.635Z,10.99
2023-11-07T20:24:42.749Z,10.94
2023-11-07T20:27:11.154Z,10.90
2023-11-07T20:29:41.110Z,10.86
2023-11-07T20:32:09.687Z,10.86
2023-11-07T20:34:39.191Z,10.87
2023-11-07T20:37:08.082Z,10.86
2023-11-07T20:39:36.519Z,10.88
2023-11-07T20:42:05.269Z,10.82
2023-11-07T20:44:42.673Z,10.77
2023-11-07T20:47:12.978Z,10.69
2023-11-07T20:49:45.622Z,10.63
2023-11-07T20:52:24.924Z,10.57
2023-11-07T20:54:57.034Z,10.52
2023-11-07T20:57:25.935Z,10.48
2023-11-07T20:59:54.433Z,10.44
2023-11-07T21:02:22.658Z,10.43
2023-11-07T21:04:51.200Z,10.44
2023-11-07T21:07:19.668Z,10.45
2023-11-07T21:09:48.049Z,10.42
2023-11-07T21:12:16.460Z,10.39
2023-11-07T21:14:45.023Z,10.35
2023-11-07T21:17:13.914Z,10.29
2023-11-07T21:19:42.286Z,10.24
2023-11-07T21:22:12.153Z,10.21
2023-11-07T21:24:41.216Z,10.19
2023-11-07T21:27:09.695Z,10.17
2023-11-07T21:29:38.205Z,10.16
2023-11-07T21:32:06.884Z,10.15
2023-11-07T21:34:35.793Z,10.12
2023-11-07T21:37:05.314Z,10.06
2023-11-07T21:39:33.628Z,9.99
2023-11-07T21:42:02.338Z,9.92
2023-11-07T21:44:30.693Z,9.86
2023-11-07T21:47:00.300Z,9.81
2023-11-07T21:49:28.632Z,9.73
2023-11-07T21:51:57.181Z,9.66
2023-11-07T21:54:25.379Z,9.57
2023-11-07T21:56:55.613Z,9.51
2023-11-07T21:59:24.048Z,9.46
2023-11-07T22:01:52.272Z,9.41
2023-11-07T22:04:20.521Z,9.37
2023-11-07T22:06:48.835Z,9.35
2023-11-07T22:09:18.231Z,9.35
2023-11-07T22:11:47.068Z,9.37
2023-11-07T22:14:16.119Z,9.36
2023-11-07T22:16:44.850Z,9.34
2023-11-07T22:19:13.442Z,9.31
2023-11-07T22:21:42.228Z,9.31
2023-11-07T22:24:10.952Z,9.32
2023-11-07T22:26:39.703Z,9.34
2023-11-07T22:29:08.226Z,9.35
2023-11-07T22:31:37.089Z,9.30
2023-11-07T22:34:05.554Z,9.25
2023-11-07T22:36:34.932Z,9.23
2023-11-07T22:39:04.513Z,9.23
2023-11-07T22:41:32.852Z,9.25
2023-11-07T22:44:01.430Z,9.35
2023-11-07T22:46:30.624Z,9.33
2023-11-07T22:48:59.458Z,9.26
2023-11-07T22:51:28.024Z,9.21
2023-11-07T22:53:56.503Z,9.11
2023-11-07T22:56:24.868Z,9.10
2023-11-07T22:58:53.196Z,9.12
2023-11-07T23:01:21.621Z,9.14
2023-11-07T23:03:50.189Z,9.20
2023-11-07T23:06:18.757Z,9.14
2023-11-07T23:08:47.175Z,9.10
2023-11-07T23:11:15.979Z,9.12
2023-11-07T23:13:44.442Z,9.14
2023-11-07T23:16:12.829Z,9.15
2023-11-07T23:18:44.017Z,9.15
2023-11-07T23:21:13.208Z,9.15
2023-11-07T23:23:41.375Z,9.16
2023-11-07T23:26:11.274Z,9.16
2023-11-07T23:28:39.480Z,9.18
2023-11-07T23:31:08.475Z,9.20
2023-11-07T23:33:36.837Z,9.23
2023-11-07T23:36:06.227Z,9.20
2023-11-07T23:38:35.631Z,9.23
2023-11-07T23:41:05.255Z,9.23
2023-11-07T23:43:33.601Z,9.22
2023-11-07T23:46:01.878Z,9.23
2023-11-07T23:48:30.788Z,9.23
2023-11-07T23:50:59.154Z,9.21
2023-11-07T23:53:27.527Z,9.18
2023-11-07T23:55:55.789Z,9.13
2023-11-07T23:58:24.190Z,9.07
